sensor_id;sensor_type;location;lat;lon;timestamp;P1;durP1;ratioP1;P2;durP2;ratioP2
40707;SDS011;26392;42.696;23.350;2022-10-22T00:01:03;48.28;;;21.83;;
40707;SDS011;26392;42.696;23.350;2022-10-22T00:03:29;48.80;;;22.67;;
40707;SDS011;26392;42.696;23.350;2022-10-22T00:05:54;49.10;;;22.08;;
40707;SDS011;26392;42.696;23.350;2022-10-22T00:08:20;48.05;;;21.70;;
40707;SDS011;26392;42.696;23.350;2022-10-22T00:10:45;46.40;;;22.17;;
40707;SDS011;26392;42.696;23.350;2022-10-22T00:13:11;48.38;;;22.90;;
40707;SDS011;26392;42.696;23.350;2022-10-22T00:15:37;46.35;;;22.63;;
40707;SDS011;26392;42.696;23.350;2022-10-22T00:18:02;51.75;;;22.05;;
40707;SDS011;26392;42.696;23.350;2022-10-22T00:20:28;45.85;;;21.42;;
40707;SDS011;26392;42.696;23.350;2022-10-22T00:22:53;52.35;;;22.60;;
40707;SDS011;26392;42.696;23.350;2022-10-22T00:25:19;48.40;;;22.50;;
40707;SDS011;26392;42.696;23.350;2022-10-22T00:27:44;47.45;;;23.20;;
40707;SDS011;26392;42.696;23.350;2022-10-22T00:30:10;48.58;;;22.08;;
40707;SDS011;26392;42.696;23.350;2022-10-22T00:32:36;56.28;;;21.92;;
40707;SDS011;26392;42.696;23.350;2022-10-22T00:35:01;46.33;;;20.85;;
40707;SDS011;26392;42.696;23.350;2022-10-22T00:37:27;49.05;;;21.98;;
40707;SDS011;26392;42.696;23.350;2022-10-22T00:39:54;47.42;;;21.58;;
40707;SDS011;26392;42.696;23.350;2022-10-22T00:42:21;43.70;;;20.42;;
40707;SDS011;26392;42.696;23.350;2022-10-22T00:50:09;43.15;;;21.90;;
40707;SDS011;26392;42.696;23.350;2022-10-22T00:52:38;46.92;;;22.08;;
40707;SDS011;26392;42.696;23.350;2022-10-22T00:55:04;46.47;;;22.05;;
40707;SDS011;26392;42.696;23.350;2022-10-22T00:57:30;49.50;;;21.52;;
40707;SDS011;26392;42.696;23.350;2022-10-22T00:59:57;44.03;;;21.27;;
40707;SDS011;26392;42.696;23.350;2022-10-22T01:02:22;46.58;;;21.90;;
40707;SDS011;26392;42.696;23.350;2022-10-22T01:04:48;46.42;;;22.25;;
40707;SDS011;26392;42.696;23.350;2022-10-22T01:07:16;48.67;;;21.45;;
40707;SDS011;26392;42.696;23.350;2022-10-22T01:09:46;49.50;;;21.60;;
40707;SDS011;26392;42.696;23.350;2022-10-22T01:17:49;45.13;;;20.63;;
40707;SDS011;26392;42.696;23.350;2022-10-22T01:29:45;47.30;;;21.52;;
40707;SDS011;26392;42.696;23.350;2022-10-22T01:32:16;47.00;;;20.63;;
40707;SDS011;26392;42.696;23.350;2022-10-22T01:34:47;48.58;;;21.10;;
40707;SDS011;26392;42.696;23.350;2022-10-22T01:37:16;49.65;;;22.75;;
40707;SDS011;26392;42.696;23.350;2022-10-22T01:39:45;41.03;;;22.42;;
40707;SDS011;26392;42.696;23.350;2022-10-22T01:42:12;44.30;;;21.48;;
40707;SDS011;26392;42.696;23.350;2022-10-22T01:44:38;48.38;;;22.40;;
40707;SDS011;26392;42.696;23.350;2022-10-22T01:47:14;46.20;;;21.30;;
40707;SDS011;26392;42.696;23.350;2022-10-22T01:50:08;53.42;;;21.52;;
40707;SDS011;26392;42.696;23.350;2022-10-22T01:58:31;52.83;;;23.33;;
40707;SDS011;26392;42.696;23.350;2022-10-22T02:03:47;51.25;;;23.67;;
40707;SDS011;26392;42.696;23.350;2022-10-22T02:06:25;51.60;;;21.88;;
40707;SDS011;26392;42.696;23.350;2022-10-22T02:08:53;53.90;;;23.05;;
40707;SDS011;26392;42.696;23.350;2022-10-22T02:11:20;47.05;;;22.95;;
40707;SDS011;26392;42.696;23.350;2022-10-22T02:13:48;51.95;;;22.80;;
40707;SDS011;26392;42.696;23.350;2022-10-22T02:16:35;51.92;;;22.67;;
40707;SDS011;26392;42.696;23.350;2022-10-22T02:21:51;51.53;;;21.90;;
40707;SDS011;26392;42.696;23.350;2022-10-22T02:24:18;45.42;;;22.30;;
40707;SDS011;26392;42.696;23.350;2022-10-22T02:27:28;51.03;;;22.23;;
40707;SDS011;26392;42.696;23.350;2022-10-22T02:29:37;45.85;;;20.77;;
40707;SDS011;26392;42.696;23.350;2022-10-22T02:32:08;52.28;;;22.10;;
40707;SDS011;26392;42.696;23.350;2022-10-22T02:34:36;55.00;;;23.90;;
40707;SDS011;26392;42.696;23.350;2022-10-22T02:37:01;48.65;;;21.67;;
40707;SDS011;26392;42.696;23.350;2022-10-22T02:39:28;49.63;;;22.23;;
40707;SDS011;26392;42.696;23.350;2022-10-22T02:41:55;48.63;;;22.45;;
40707;SDS011;26392;42.696;23.350;2022-10-22T02:44:22;47.88;;;21.35;;
40707;SDS011;26392;42.696;23.350;2022-10-22T02:46:48;46.03;;;21.80;;
40707;SDS011;26392;42.696;23.350;2022-10-22T02:49:14;62.53;;;23.27;;
40707;SDS011;26392;42.696;23.350;2022-10-22T02:51:39;58.63;;;24.17;;
40707;SDS011;26392;42.696;23.350;2022-10-22T02:54:05;49.50;;;21.90;;
40707;SDS011;26392;42.696;23.350;2022-10-22T02:56:30;46.22;;;21.95;;
40707;SDS011;26392;42.696;23.350;2022-10-22T02:58:56;51.03;;;22.75;;
40707;SDS011;26392;42.696;23.350;2022-10-22T03:01:21;45.50;;;22.23;;
40707;SDS011;26392;42.696;23.350;2022-10-22T03:03:47;47.10;;;22.52;;
40707;SDS011;26392;42.696;23.350;2022-10-22T03:06:12;47.83;;;22.67;;
40707;SDS011;26392;42.696;23.350;2022-10-22T03:08:38;51.75;;;23.15;;
40707;SDS011;26392;42.696;23.350;2022-10-22T03:11:03;50.10;;;22.60;;
40707;SDS011;26392;42.696;23.350;2022-10-22T03:13:28;55.25;;;22.98;;
40707;SDS011;26392;42.696;23.350;2022-10-22T03:15:54;45.45;;;22.30;;
40707;SDS011;26392;42.696;23.350;2022-10-22T03:18:19;43.75;;;21.15;;
40707;SDS011;26392;42.696;23.350;2022-10-22T03:20:44;48.05;;;22.10;;
40707;SDS011;26392;42.696;23.350;2022-10-22T03:23:11;49.45;;;23.38;;
40707;SDS011;26392;42.696;23.350;2022-10-22T03:25:39;49.38;;;22.27;;
40707;SDS011;26392;42.696;23.350;2022-10-22T03:28:07;46.92;;;22.08;;
40707;SDS011;26392;42.696;23.350;2022-10-22T03:30:35;48.95;;;21.98;;
40707;SDS011;26392;42.696;23.350;2022-10-22T03:33:00;51.10;;;21.90;;
40707;SDS011;26392;42.696;23.350;2022-10-22T03:35:26;47.33;;;22.13;;
40707;SDS011;26392;42.696;23.350;2022-10-22T03:37:51;50.42;;;24.85;;
40707;SDS011;26392;42.696;23.350;2022-10-22T03:40:18;49.03;;;23.00;;
40707;SDS011;26392;42.696;23.350;2022-10-22T03:42:44;50.58;;;22.83;;
40707;SDS011;26392;42.696;23.350;2022-10-22T03:45:09;51.60;;;25.15;;
40707;SDS011;26392;42.696;23.350;2022-10-22T03:47:35;55.50;;;25.40;;
40707;SDS011;26392;42.696;23.350;2022-10-22T03:50:01;48.42;;;23.73;;
40707;SDS011;26392;42.696;23.350;2022-10-22T03:52:27;53.42;;;25.55;;
40707;SDS011;26392;42.696;23.350;2022-10-22T03:54:53;49.90;;;24.75;;
40707;SDS011;26392;42.696;23.350;2022-10-22T03:57:18;63.97;;;26.48;;
40707;SDS011;26392;42.696;23.350;2022-10-22T03:59:44;60.25;;;24.38;;
40707;SDS011;26392;42.696;23.350;2022-10-22T04:02:11;50.97;;;24.60;;
40707;SDS011;26392;42.696;23.350;2022-10-22T04:04:38;51.95;;;24.75;;
40707;SDS011;26392;42.696;23.350;2022-10-22T04:07:04;50.63;;;22.23;;
40707;SDS011;26392;42.696;23.350;2022-10-22T04:09:31;57.42;;;23.88;;
40707;SDS011;26392;42.696;23.350;2022-10-22T04:11:57;44.95;;;22.60;;
40707;SDS011;26392;42.696;23.350;2022-10-22T04:14:23;49.67;;;22.65;;
40707;SDS011;26392;42.696;23.350;2022-10-22T04:16:49;44.45;;;20.60;;
40707;SDS011;26392;42.696;23.350;2022-10-22T04:19:14;45.92;;;21.20;;
40707;SDS011;26392;42.696;23.350;2022-10-22T04:21:40;46.45;;;21.00;;
40707;SDS011;26392;42.696;23.350;2022-10-22T04:24:05;47.70;;;21.30;;
40707;SDS011;26392;42.696;23.350;2022-10-22T04:26:31;43.13;;;20.45;;
40707;SDS011;26392;42.696;23.350;2022-10-22T04:28:56;44.83;;;19.98;;
40707;SDS011;26392;42.696;23.350;2022-10-22T04:31:22;44.13;;;20.48;;
40707;SDS011;26392;42.696;23.350;2022-10-22T04:33:56;47.47;;;20.05;;
40707;SDS011;26392;42.696;23.350;2022-10-22T04:36:23;41.75;;;19.83;;
40707;SDS011;26392;42.696;23.350;2022-10-22T04:38:53;38.08;;;17.70;;
40707;SDS011;26392;42.696;23.350;2022-10-22T04:41:22;45.72;;;19.25;;
40707;SDS011;26392;42.696;23.350;2022-10-22T04:43:49;44.13;;;19.38;;
40707;SDS011;26392;42.696;23.350;2022-10-22T04:46:15;41.78;;;18.77;;
40707;SDS011;26392;42.696;23.350;2022-10-22T04:48:42;42.92;;;20.20;;
40707;SDS011;26392;42.696;23.350;2022-10-22T04:51:10;53.20;;;21.33;;
40707;SDS011;26392;42.696;23.350;2022-10-22T04:53:37;56.10;;;20.90;;
40707;SDS011;26392;42.696;23.350;2022-10-22T04:56:08;40.90;;;19.38;;
40707;SDS011;26392;42.696;23.350;2022-10-22T04:58:40;42.90;;;19.90;;
40707;SDS011;26392;42.696;23.350;2022-10-22T05:03:36;44.60;;;20.98;;
40707;SDS011;26392;42.696;23.350;2022-10-22T05:06:02;49.47;;;21.73;;
40707;SDS011;26392;42.696;23.350;2022-10-22T05:08:28;49.13;;;22.10;;
40707;SDS011;26392;42.696;23.350;2022-10-22T05:10:53;44.28;;;20.25;;
40707;SDS011;26392;42.696;23.350;2022-10-22T05:13:18;58.40;;;23.50;;
40707;SDS011;26392;42.696;23.350;2022-10-22T05:15:44;45.28;;;21.27;;
40707;SDS011;26392;42.696;23.350;2022-10-22T05:18:09;41.15;;;19.92;;
40707;SDS011;26392;42.696;23.350;2022-10-22T05:20:38;43.47;;;18.35;;
40707;SDS011;26392;42.696;23.350;2022-10-22T05:23:04;41.83;;;18.50;;
40707;SDS011;26392;42.696;23.350;2022-10-22T05:25:30;41.45;;;19.10;;
40707;SDS011;26392;42.696;23.350;2022-10-22T05:27:55;41.28;;;18.23;;
40707;SDS011;26392;42.696;23.350;2022-10-22T05:30:21;35.65;;;17.30;;
40707;SDS011;26392;42.696;23.350;2022-10-22T05:32:46;38.72;;;16.60;;
40707;SDS011;26392;42.696;23.350;2022-10-22T05:35:12;32.88;;;14.32;;
40707;SDS011;26392;42.696;23.350;2022-10-22T05:37:37;38.67;;;16.77;;
40707;SDS011;26392;42.696;23.350;2022-10-22T05:40:03;29.83;;;15.95;;
40707;SDS011;26392;42.696;23.350;2022-10-22T05:42:32;41.17;;;16.83;;
40707;SDS011;26392;42.696;23.350;2022-10-22T05:44:57;43.38;;;18.58;;
40707;SDS011;26392;42.696;23.350;2022-10-22T05:47:23;43.55;;;17.35;;
40707;SDS011;26392;42.696;23.350;2022-10-22T05:49:49;41.05;;;19.52;;
40707;SDS011;26392;42.696;23.350;2022-10-22T05:52:14;44.28;;;22.23;;
40707;SDS011;26392;42.696;23.350;2022-10-22T05:54:39;57.58;;;25.52;;
40707;SDS011;26392;42.696;23.350;2022-10-22T05:57:05;52.03;;;24.85;;
40707;SDS011;26392;42.696;23.350;2022-10-22T05:59:30;51.15;;;22.33;;
40707;SDS011;26392;42.696;23.350;2022-10-22T06:01:56;57.97;;;22.67;;
40707;SDS011;26392;42.696;23.350;2022-10-22T06:04:40;45.83;;;22.27;;
40707;SDS011;26392;42.696;23.350;2022-10-22T06:07:07;37.58;;;20.27;;
40707;SDS011;26392;42.696;23.350;2022-10-22T06:09:38;57.15;;;25.10;;
40707;SDS011;26392;42.696;23.350;2022-10-22T06:12:04;50.17;;;23.58;;
40707;SDS011;26392;42.696;23.350;2022-10-22T06:14:33;44.60;;;21.98;;
40707;SDS011;26392;42.696;23.350;2022-10-22T06:16:58;50.42;;;22.27;;
40707;SDS011;26392;42.696;23.350;2022-10-22T06:19:24;56.28;;;22.73;;
40707;SDS011;26392;42.696;23.350;2022-10-22T06:21:51;44.58;;;22.77;;
40707;SDS011;26392;42.696;23.350;2022-10-22T06:24:16;48.22;;;23.30;;
40707;SDS011;26392;42.696;23.350;2022-10-22T06:26:42;41.15;;;20.17;;
40707;SDS011;26392;42.696;23.350;2022-10-22T06:29:08;46.90;;;22.63;;
40707;SDS011;26392;42.696;23.350;2022-10-22T06:31:34;46.38;;;22.38;;
40707;SDS011;26392;42.696;23.350;2022-10-22T06:34:03;46.40;;;20.52;;
40707;SDS011;26392;42.696;23.350;2022-10-22T06:36:30;37.65;;;19.85;;
40707;SDS011;26392;42.696;23.350;2022-10-22T06:38:56;40.67;;;20.60;;
40707;SDS011;26392;42.696;23.350;2022-10-22T06:41:21;49.15;;;20.98;;
40707;SDS011;26392;42.696;23.350;2022-10-22T06:43:48;51.28;;;20.80;;
40707;SDS011;26392;42.696;23.350;2022-10-22T06:46:15;46.33;;;20.95;;
40707;SDS011;26392;42.696;23.350;2022-10-22T06:48:42;48.45;;;21.35;;
40707;SDS011;26392;42.696;23.350;2022-10-22T06:51:09;41.80;;;20.70;;
40707;SDS011;26392;42.696;23.350;2022-10-22T06:53:36;44.53;;;20.02;;
40707;SDS011;26392;42.696;23.350;2022-10-22T06:56:06;49.22;;;21.85;;
40707;SDS011;26392;42.696;23.350;2022-10-22T06:58:33;49.70;;;21.38;;
40707;SDS011;26392;42.696;23.350;2022-10-22T07:00:59;37.35;;;20.02;;
40707;SDS011;26392;42.696;23.350;2022-10-22T07:03:26;54.78;;;21.15;;
40707;SDS011;26392;42.696;23.350;2022-10-22T07:05:52;37.08;;;21.10;;
40707;SDS011;26392;42.696;23.350;2022-10-22T07:08:17;45.70;;;21.05;;
40707;SDS011;26392;42.696;23.350;2022-10-22T07:10:42;45.35;;;20.92;;
40707;SDS011;26392;42.696;23.350;2022-10-22T07:13:08;46.88;;;21.73;;
40707;SDS011;26392;42.696;23.350;2022-10-22T07:15:33;43.55;;;21.02;;
40707;SDS011;26392;42.696;23.350;2022-10-22T07:17:59;40.63;;;20.27;;
40707;SDS011;26392;42.696;23.350;2022-10-22T07:20:24;43.72;;;20.23;;
40707;SDS011;26392;42.696;23.350;2022-10-22T07:22:50;38.85;;;19.52;;
40707;SDS011;26392;42.696;23.350;2022-10-22T07:25:15;42.67;;;20.88;;
40707;SDS011;26392;42.696;23.350;2022-10-22T07:27:41;40.95;;;21.17;;
40707;SDS011;26392;42.696;23.350;2022-10-22T07:30:06;44.40;;;22.13;;
40707;SDS011;26392;42.696;23.350;2022-10-22T07:32:32;46.05;;;21.70;;
40707;SDS011;26392;42.696;23.350;2022-10-22T07:34:57;44.22;;;21.45;;
40707;SDS011;26392;42.696;23.350;2022-10-22T07:37:23;44.28;;;20.88;;
40707;SDS011;26392;42.696;23.350;2022-10-22T07:39:48;43.60;;;19.13;;
40707;SDS011;26392;42.696;23.350;2022-10-22T07:42:14;46.03;;;19.42;;
40707;SDS011;26392;42.696;23.350;2022-10-22T07:44:39;40.92;;;20.42;;
40707;SDS011;26392;42.696;23.350;2022-10-22T07:47:05;46.03;;;21.73;;
40707;SDS011;26392;42.696;23.350;2022-10-22T07:49:30;37.13;;;20.08;;
40707;SDS011;26392;42.696;23.350;2022-10-22T07:51:55;44.75;;;20.88;;
40707;SDS011;26392;42.696;23.350;2022-10-22T07:54:21;40.72;;;21.17;;
40707;SDS011;26392;42.696;23.350;2022-10-22T07:56:49;41.15;;;20.15;;
40707;SDS011;26392;42.696;23.350;2022-10-22T07:59:14;39.92;;;19.85;;
40707;SDS011;26392;42.696;23.350;2022-10-22T08:01:40;41.63;;;21.05;;
40707;SDS011;26392;42.696;23.350;2022-10-22T08:04:05;43.22;;;21.45;;
40707;SDS011;26392;42.696;23.350;2022-10-22T08:06:34;38.75;;;19.60;;
40707;SDS011;26392;42.696;23.350;2022-10-22T08:09:00;39.60;;;20.88;;
40707;SDS011;26392;42.696;23.350;2022-10-22T08:11:25;47.50;;;20.02;;
40707;SDS011;26392;42.696;23.350;2022-10-22T08:13:51;41.30;;;20.48;;
40707;SDS011;26392;42.696;23.350;2022-10-22T08:16:17;38.92;;;20.45;;
40707;SDS011;26392;42.696;23.350;2022-10-22T08:18:43;44.20;;;20.52;;
40707;SDS011;26392;42.696;23.350;2022-10-22T08:21:10;44.13;;;20.90;;
40707;SDS011;26392;42.696;23.350;2022-10-22T08:23:36;39.67;;;20.17;;
40707;SDS011;26392;42.696;23.350;2022-10-22T08:26:02;45.28;;;20.02;;
40707;SDS011;26392;42.696;23.350;2022-10-22T08:28:28;48.78;;;20.92;;
40707;SDS011;26392;42.696;23.350;2022-10-22T08:30:55;43.20;;;19.83;;
40707;SDS011;26392;42.696;23.350;2022-10-22T08:33:21;41.72;;;20.38;;
40707;SDS011;26392;42.696;23.350;2022-10-22T08:35:49;49.60;;;23.25;;
40707;SDS011;26392;42.696;23.350;2022-10-22T08:38:16;48.15;;;23.35;;
40707;SDS011;26392;42.696;23.350;2022-10-22T08:40:43;51.30;;;22.85;;
40707;SDS011;26392;42.696;23.350;2022-10-22T08:51:17;42.67;;;21.00;;
40707;SDS011;26392;42.696;23.350;2022-10-22T08:56:29;32.97;;;17.65;;
40707;SDS011;26392;42.696;23.350;2022-10-22T09:01:40;40.88;;;19.23;;
40707;SDS011;26392;42.696;23.350;2022-10-22T09:07:13;39.50;;;18.95;;
40707;SDS011;26392;42.696;23.350;2022-10-22T09:09:39;35.58;;;17.85;;
40707;SDS011;26392;42.696;23.350;2022-10-22T09:12:13;34.10;;;17.30;;
40707;SDS011;26392;42.696;23.350;2022-10-22T09:14:40;39.67;;;16.52;;
40707;SDS011;26392;42.696;23.350;2022-10-22T09:27:38;34.83;;;15.38;;
40707;SDS011;26392;42.696;23.350;2022-10-22T09:30:04;27.98;;;14.05;;
40707;SDS011;26392;42.696;23.350;2022-10-22T09:32:30;29.60;;;15.07;;
40707;SDS011;26392;42.696;23.350;2022-10-22T09:34:56;28.35;;;15.45;;
40707;SDS011;26392;42.696;23.350;2022-10-22T09:37:27;27.55;;;14.02;;
40707;SDS011;26392;42.696;23.350;2022-10-22T09:39:54;29.77;;;15.27;;
40707;SDS011;26392;42.696;23.350;2022-10-22T09:42:22;25.75;;;14.35;;
40707;SDS011;26392;42.696;23.350;2022-10-22T09:44:53;26.35;;;14.45;;
40707;SDS011;26392;42.696;23.350;2022-10-22T09:47:32;30.48;;;14.55;;
40707;SDS011;26392;42.696;23.350;2022-10-22T09:52:42;26.55;;;14.68;;
40707;SDS011;26392;42.696;23.350;2022-10-22T09:55:14;25.40;;;13.45;;
40707;SDS011;26392;42.696;23.350;2022-10-22T09:57:41;24.30;;;13.37;;
40707;SDS011;26392;42.696;23.350;2022-10-22T10:00:07;28.42;;;14.65;;
40707;SDS011;26392;42.696;23.350;2022-10-22T10:02:34;24.10;;;13.38;;
40707;SDS011;26392;42.696;23.350;2022-10-22T10:05:03;25.45;;;13.38;;
40707;SDS011;26392;42.696;23.350;2022-10-22T10:07:30;31.73;;;13.70;;
40707;SDS011;26392;42.696;23.350;2022-10-22T10:09:57;26.60;;;14.60;;
40707;SDS011;26392;42.696;23.350;2022-10-22T10:17:48;27.13;;;14.40;;
40707;SDS011;26392;42.696;23.350;2022-10-22T10:20:39;27.05;;;13.45;;
40707;SDS011;26392;42.696;23.350;2022-10-22T10:23:33;25.17;;;13.32;;
40707;SDS011;26392;42.696;23.350;2022-10-22T10:37:45;20.10;;;12.57;;
40707;SDS011;26392;42.696;23.350;2022-10-22T10:40:20;28.30;;;12.98;;
40707;SDS011;26392;42.696;23.350;2022-10-22T10:55:58;23.55;;;12.93;;
40707;SDS011;26392;42.696;23.350;2022-10-22T11:07:06;23.63;;;12.25;;
40707;SDS011;26392;42.696;23.350;2022-10-22T11:09:45;25.13;;;13.10;;
40707;SDS011;26392;42.696;23.350;2022-10-22T11:12:41;22.48;;;11.20;;
40707;SDS011;26392;42.696;23.350;2022-10-22T11:17:51;21.00;;;11.82;;
40707;SDS011;26392;42.696;23.350;2022-10-22T11:20:28;21.95;;;12.13;;
40707;SDS011;26392;42.696;23.350;2022-10-22T11:22:56;21.55;;;12.02;;
40707;SDS011;26392;42.696;23.350;2022-10-22T11:25:27;23.00;;;11.63;;
40707;SDS011;26392;42.696;23.350;2022-10-22T11:28:00;22.08;;;12.40;;
40707;SDS011;26392;42.696;23.350;2022-10-22T11:30:33;17.98;;;10.80;;
40707;SDS011;26392;42.696;23.350;2022-10-22T11:33:04;23.15;;;11.00;;
40707;SDS011;26392;42.696;23.350;2022-10-22T11:35:36;21.80;;;11.32;;
40707;SDS011;26392;42.696;23.350;2022-10-22T11:38:05;20.33;;;11.45;;
40707;SDS011;26392;42.696;23.350;2022-10-22T11:40:36;19.55;;;11.80;;
40707;SDS011;26392;42.696;23.350;2022-10-22T11:43:04;18.40;;;11.43;;
40707;SDS011;26392;42.696;23.350;2022-10-22T11:45:38;18.38;;;11.30;;
40707;SDS011;26392;42.696;23.350;2022-10-22T11:53:16;24.98;;;11.20;;
40707;SDS011;26392;42.696;23.350;2022-10-22T11:55:44;18.25;;;11.30;;
40707;SDS011;26392;42.696;23.350;2022-10-22T12:00:52;25.85;;;11.70;;
40707;SDS011;26392;42.696;23.350;2022-10-22T12:03:40;24.23;;;11.68;;
40707;SDS011;26392;42.696;23.350;2022-10-22T12:08:45;22.08;;;11.63;;
40707;SDS011;26392;42.696;23.350;2022-10-22T12:16:45;18.52;;;9.98;;
40707;SDS011;26392;42.696;23.350;2022-10-22T12:19:16;20.52;;;9.50;;
40707;SDS011;26392;42.696;23.350;2022-10-22T12:21:50;16.15;;;9.75;;
40707;SDS011;26392;42.696;23.350;2022-10-22T12:24:19;18.95;;;9.30;;
40707;SDS011;26392;42.696;23.350;2022-10-22T12:26:46;14.85;;;9.10;;
40707;SDS011;26392;42.696;23.350;2022-10-22T12:29:16;22.38;;;9.48;;
40707;SDS011;26392;42.696;23.350;2022-10-22T12:31:43;15.65;;;9.98;;
40707;SDS011;26392;42.696;23.350;2022-10-22T12:34:14;22.20;;;9.75;;
40707;SDS011;26392;42.696;23.350;2022-10-22T12:36:41;18.67;;;8.90;;
40707;SDS011;26392;42.696;23.350;2022-10-22T12:39:12;17.60;;;8.88;;
40707;SDS011;26392;42.696;23.350;2022-10-22T12:41:43;17.50;;;9.07;;
40707;SDS011;26392;42.696;23.350;2022-10-22T12:44:10;18.60;;;8.75;;
40707;SDS011;26392;42.696;23.350;2022-10-22T12:46:38;16.67;;;9.95;;
40707;SDS011;26392;42.696;23.350;2022-10-22T12:49:06;25.92;;;10.23;;
40707;SDS011;26392;42.696;23.350;2022-10-22T12:51:38;21.77;;;9.20;;
40707;SDS011;26392;42.696;23.350;2022-10-22T12:54:07;17.52;;;9.15;;
40707;SDS011;26392;42.696;23.350;2022-10-22T12:56:37;17.70;;;8.35;;
40707;SDS011;26392;42.696;23.350;2022-10-22T13:01:47;21.13;;;9.73;;
40707;SDS011;26392;42.696;23.350;2022-10-22T13:10:14;13.40;;;7.80;;
40707;SDS011;26392;42.696;23.350;2022-10-22T13:12:22;17.23;;;8.98;;
40707;SDS011;26392;42.696;23.350;2022-10-22T13:14:52;17.88;;;8.57;;
40707;SDS011;26392;42.696;23.350;2022-10-22T13:17:18;18.98;;;8.98;;
40707;SDS011;26392;42.696;23.350;2022-10-22T13:24:55;27.48;;;8.70;;
40707;SDS011;26392;42.696;23.350;2022-10-22T13:27:24;16.58;;;8.02;;
40707;SDS011;26392;42.696;23.350;2022-10-22T13:29:51;15.07;;;8.80;;
40707;SDS011;26392;42.696;23.350;2022-10-22T13:32:29;17.73;;;8.90;;
40707;SDS011;26392;42.696;23.350;2022-10-22T13:34:57;14.73;;;8.60;;
40707;SDS011;26392;42.696;23.350;2022-10-22T13:37:25;15.85;;;8.85;;
40707;SDS011;26392;42.696;23.350;2022-10-22T13:39:53;16.48;;;8.05;;
40707;SDS011;26392;42.696;23.350;2022-10-22T13:42:18;16.58;;;7.80;;
40707;SDS011;26392;42.696;23.350;2022-10-22T13:44:44;15.13;;;7.82;;
40707;SDS011;26392;42.696;23.350;2022-10-22T13:47:30;15.55;;;8.25;;
40707;SDS011;26392;42.696;23.350;2022-10-22T13:49:56;17.35;;;9.00;;
40707;SDS011;26392;42.696;23.350;2022-10-22T13:52:43;15.40;;;7.88;;
40707;SDS011;26392;42.696;23.350;2022-10-22T13:55:15;18.25;;;8.43;;
40707;SDS011;26392;42.696;23.350;2022-10-22T13:57:43;20.70;;;8.57;;
40707;SDS011;26392;42.696;23.350;2022-10-22T14:00:10;16.08;;;8.00;;
40707;SDS011;26392;42.696;23.350;2022-10-22T14:02:40;15.35;;;8.50;;
40707;SDS011;26392;42.696;23.350;2022-10-22T14:05:06;21.90;;;8.05;;
40707;SDS011;26392;42.696;23.350;2022-10-22T14:07:33;16.05;;;7.90;;
40707;SDS011;26392;42.696;23.350;2022-10-22T14:10:05;13.60;;;7.97;;
40707;SDS011;26392;42.696;23.350;2022-10-22T14:12:37;17.65;;;8.15;;
40707;SDS011;26392;42.696;23.350;2022-10-22T14:15:03;17.45;;;8.80;;
40707;SDS011;26392;42.696;23.350;2022-10-22T14:17:30;14.60;;;8.93;;
40707;SDS011;26392;42.696;23.350;2022-10-22T14:19:55;18.73;;;9.30;;
40707;SDS011;26392;42.696;23.350;2022-10-22T14:22:21;15.35;;;8.98;;
40707;SDS011;26392;42.696;23.350;2022-10-22T14:24:51;17.65;;;8.30;;
40707;SDS011;26392;42.696;23.350;2022-10-22T14:27:16;19.17;;;8.38;;
40707;SDS011;26392;42.696;23.350;2022-10-22T14:29:42;15.80;;;9.40;;
40707;SDS011;26392;42.696;23.350;2022-10-22T14:32:14;17.58;;;9.35;;
40707;SDS011;26392;42.696;23.350;2022-10-22T14:34:44;15.57;;;9.18;;
40707;SDS011;26392;42.696;23.350;2022-10-22T14:37:19;19.30;;;9.05;;
40707;SDS011;26392;42.696;23.350;2022-10-22T14:39:45;16.67;;;8.88;;
40707;SDS011;26392;42.696;23.350;2022-10-22T14:42:15;18.88;;;8.80;;
40707;SDS011;26392;42.696;23.350;2022-10-22T14:44:42;16.98;;;8.80;;
40707;SDS011;26392;42.696;23.350;2022-10-22T14:47:07;14.98;;;7.88;;
40707;SDS011;26392;42.696;23.350;2022-10-22T14:49:33;23.10;;;9.48;;
40707;SDS011;26392;42.696;23.350;2022-10-22T14:51:58;23.13;;;9.95;;
40707;SDS011;26392;42.696;23.350;2022-10-22T14:54:23;19.88;;;8.55;;
40707;SDS011;26392;42.696;23.350;2022-10-22T14:56:49;19.75;;;10.18;;
40707;SDS011;26392;42.696;23.350;2022-10-22T14:59:14;21.05;;;9.82;;
40707;SDS011;26392;42.696;23.350;2022-10-22T15:01:40;16.02;;;8.88;;
40707;SDS011;26392;42.696;23.350;2022-10-22T15:04:06;21.15;;;10.00;;
40707;SDS011;26392;42.696;23.350;2022-10-22T15:06:32;19.13;;;9.35;;
40707;SDS011;26392;42.696;23.350;2022-10-22T15:08:57;17.98;;;9.90;;
40707;SDS011;26392;42.696;23.350;2022-10-22T15:11:23;35.58;;;11.85;;
40707;SDS011;26392;42.696;23.350;2022-10-22T15:13:48;19.88;;;9.73;;
40707;SDS011;26392;42.696;23.350;2022-10-22T15:16:14;25.58;;;10.50;;
40707;SDS011;26392;42.696;23.350;2022-10-22T15:18:40;19.17;;;9.90;;
40707;SDS011;26392;42.696;23.350;2022-10-22T15:21:07;19.33;;;9.55;;
40707;SDS011;26392;42.696;23.350;2022-10-22T15:23:41;19.58;;;9.52;;
40707;SDS011;26392;42.696;23.350;2022-10-22T15:26:07;23.27;;;10.20;;
40707;SDS011;26392;42.696;23.350;2022-10-22T15:28:34;25.75;;;10.80;;
40707;SDS011;26392;42.696;23.350;2022-10-22T15:31:01;21.30;;;11.07;;
40707;SDS011;26392;42.696;23.350;2022-10-22T15:33:27;24.98;;;10.88;;
40707;SDS011;26392;42.696;23.350;2022-10-22T15:35:53;18.45;;;9.35;;
40707;SDS011;26392;42.696;23.350;2022-10-22T15:38:19;24.80;;;9.43;;
40707;SDS011;26392;42.696;23.350;2022-10-22T15:40:45;20.83;;;11.25;;
40707;SDS011;26392;42.696;23.350;2022-10-22T15:43:11;22.13;;;11.18;;
40707;SDS011;26392;42.696;23.350;2022-10-22T15:45:37;36.58;;;11.55;;
40707;SDS011;26392;42.696;23.350;2022-10-22T15:48:02;24.25;;;12.13;;
40707;SDS011;26392;42.696;23.350;2022-10-22T15:50:28;29.77;;;12.75;;
40707;SDS011;26392;42.696;23.350;2022-10-22T15:52:54;31.15;;;14.25;;
40707;SDS011;26392;42.696;23.350;2022-10-22T15:55:20;33.58;;;13.50;;
40707;SDS011;26392;42.696;23.350;2022-10-22T15:57:45;29.15;;;13.98;;
40707;SDS011;26392;42.696;23.350;2022-10-22T16:00:11;30.45;;;13.15;;
40707;SDS011;26392;42.696;23.350;2022-10-22T16:02:37;24.65;;;11.57;;
40707;SDS011;26392;42.696;23.350;2022-10-22T16:05:03;29.67;;;12.25;;
40707;SDS011;26392;42.696;23.350;2022-10-22T16:07:28;28.63;;;12.85;;
40707;SDS011;26392;42.696;23.350;2022-10-22T16:09:54;29.90;;;12.73;;
40707;SDS011;26392;42.696;23.350;2022-10-22T16:12:21;22.13;;;11.30;;
40707;SDS011;26392;42.696;23.350;2022-10-22T16:14:48;34.50;;;12.70;;
40707;SDS011;26392;42.696;23.350;2022-10-22T16:17:14;28.90;;;13.25;;
40707;SDS011;26392;42.696;23.350;2022-10-22T16:19:40;29.25;;;13.40;;
40707;SDS011;26392;42.696;23.350;2022-10-22T16:22:05;24.70;;;12.88;;
40707;SDS011;26392;42.696;23.350;2022-10-22T16:24:34;36.30;;;13.60;;
40707;SDS011;26392;42.696;23.350;2022-10-22T16:26:59;34.30;;;15.48;;
40707;SDS011;26392;42.696;23.350;2022-10-22T16:29:25;32.80;;;14.00;;